Details From ZSPD - PUDONG
To ZSHC - XIAOSHAN
Flight Number -
Tags generated
Created
Modified
Stats Distance 91 nm / 169 km
Max Altitude 700 ft / 213 m
Waypoints 3
Social Downloads 1
Likes 0
Share VATSIM

Download

Looking for another format? Having issues loading an existing format? Contact us
Advertisement - Login to hide

Notes

Basic altitude profile: - Ascent Rate: 2500ft/min - Ascent Speed: 250kts - Cruise Altitude: 35000ft - Cruise Speed: 420kts - Descent Rate: 1500ft/min - Descent Speed: 250kts Options: - Use NATs: yes - Use PACOTS: yes - Use low airways: yes - Use high airways: yes

Route

ZSPD PUD ZSHC

ID Type Via Altitude Latitude Longitude Leg Dist Tot Dist Heading (true) Name
O ZSPD APT - 0 ft / 0 m 31.14343˚ 121.80509˚ - 0 nm - PUDONG
PUD VOR - 700 ft / 213 m 31.16833˚ 121.78000˚ 1 nm 1 nm 319° / 319° PUDONG VOR-DME
O ZSHC APT - 0 ft / 0 m 30.22950˚ 120.43445˚ 89 nm 91 nm 231° / 231° XIAOSHAN

Altitude Profile

Advertisement - Login to hide

ZSPD

Details ICAO ZSPD (PVG)
Name PUDONG
Region China
Timezone Asia/Shanghai (UTC+8.0)
Stats Elevation 13 ft / 4 m (AMSL)
Location 31.143427° 121.805092°
Runways 2
Magnetic Variation 5.979° W

METAR

ZSPD 162030Z 30004MPS CAVOK 01/M10 Q1035 NOSIG

Decode

TAF

Not found

Departure Runways

ID Width Length Bearing (true) Bearing (mag) Surface Threshold Offset Overrun Length
16 197 ft / 60 m 12,500 ft / 3,810 m 162.09° 168.07° Concrete 0 ft / 0 m 395 ft / 120 m
17 197 ft / 60 m 13,155 ft / 4,010 m 162.09° 168.07° Concrete 0 ft / 0 m 196 ft / 60 m
34 197 ft / 60 m 12,500 ft / 3,810 m 342.10° 348.08° Concrete 0 ft / 0 m 395 ft / 120 m
35 197 ft / 60 m 13,155 ft / 4,010 m 342.10° 348.08° Concrete 0 ft / 0 m 196 ft / 60 m

ZSHC

Details ICAO ZSHC (HGH)
Name XIAOSHAN
Region China
Timezone Asia/Shanghai (UTC+8.0)
Stats Elevation 23 ft / 7 m (AMSL)
Location 30.229504° 120.434453°
Runways 1
Magnetic Variation 5.533° W

METAR

ZSHC 162030Z 34003MPS CAVOK 01/M05 Q1036 NOSIG

Decode

TAF

Not found

Destination Runways

ID Width Length Bearing (true) Bearing (mag) Surface Threshold Offset Overrun Length
07 148 ft / 45 m 11,803 ft / 3,598 m 62.82° 68.35° Concrete 0 ft / 0 m 200 ft / 61 m
25 148 ft / 45 m 11,803 ft / 3,598 m 242.84° 248.37° Concrete 0 ft / 0 m 200 ft / 61 m

Approach Navaids

Runway Type Ident Frequency Range Bearing (true) Bearing (mag) Slope Elevation
07 Localiser IXX 109.90 MHz 18 nm / 33 km 61.92° 67.45° - 23 ft / 7 m (AMSL)
07 Glidescope IXX 109.90 MHz 10 nm / 19 km 62.83° 68.36° 3.00° 23 ft / 7 m (AMSL)
25 Localiser IDD 108.50 MHz 18 nm / 33 km 242.20° 247.74° - 23 ft / 7 m (AMSL)
25 Glidescope IDD 108.50 MHz 10 nm / 19 km 242.83° 248.36° 3.00° 23 ft / 7 m (AMSL)

Popular Alternatives